Time;durP1;ratioP1;P1;durP2;ratioP2;P2;SDS_P1;SDS_P2;PMS_P1;PMS_P2;Temp;Humidity;BMP_temperature;BMP_pressure;BME280_temperature;BME280_humidity;BME280_pressure;Samples;Min_cycle;Max_cycle;Signal;HPM_P1;HPM_P2
2022/09/22 00:01:02;;;;;;;7.55;4.30;;;9.50;99.90;;;;;;2092129;28;20032;-70
2022/09/22 00:02:03;;;;;;;11.23;4.10;;;9.50;99.90;;;;;;2093286;28;20122;-70
2022/09/22 00:03:03;;;;;;;6.25;4.05;;;9.40;99.90;;;;;;2092200;28;20029;-70
2022/09/22 00:04:07;;;;;;;4.93;4.00;;;9.40;99.90;;;;;;2091933;28;20029;-70
2022/09/22 00:05:07;;;;;;;4.80;4.05;;;9.40;99.90;;;;;;2092685;28;20024;-70
2022/09/22 00:06:10;;;;;;;6.78;3.95;;;9.40;99.90;;;;;;2092722;28;20033;-70
2022/09/22 00:07:11;;;;;;;5.65;3.97;;;9.40;99.90;;;;;;2091392;28;20083;-70
2022/09/22 00:08:11;;;;;;;5.45;4.28;;;9.40;99.90;;;;;;2093473;28;20098;-71
2022/09/22 00:09:14;;;;;;;5.60;4.18;;;9.40;99.90;;;;;;2094473;28;20082;-71
2022/09/22 00:10:17;;;;;;;4.10;3.40;;;9.40;99.90;;;;;;2092175;28;20055;-70
2022/09/22 00:11:29;;;;;;;6.47;4.18;;;9.40;99.90;;;;;;2093487;28;20532;-70
2022/09/22 00:12:29;;;;;;;4.28;3.72;;;9.40;99.90;;;;;;2091886;28;20021;-70
2022/09/22 00:13:32;;;;;;;7.05;4.28;;;9.30;99.90;;;;;;2090848;28;20053;-70
2022/09/22 00:14:32;;;;;;;5.10;4.18;;;9.30;99.90;;;;;;2093764;28;20550;-70
2022/09/22 00:15:33;;;;;;;3.97;3.63;;;9.30;99.90;;;;;;2092465;28;20377;-70
2022/09/22 00:16:41;;;;;;;4.80;3.47;;;9.30;99.90;;;;;;2093907;28;20013;-70
2022/09/22 00:17:41;;;;;;;4.78;4.22;;;9.30;99.90;;;;;;2093233;28;20032;-70
2022/09/22 00:18:42;;;;;;;6.63;4.65;;;9.30;99.90;;;;;;2090823;28;20045;-71
2022/09/22 00:19:43;;;;;;;6.45;3.70;;;9.30;99.90;;;;;;2093703;28;20039;-70
2022/09/22 00:20:43;;;;;;;4.47;3.92;;;9.30;99.90;;;;;;2093581;28;20126;-70
2022/09/22 00:21:45;;;;;;;7.88;4.32;;;9.30;99.90;;;;;;2092728;28;20039;-70
2022/09/22 00:22:50;;;;;;;6.13;4.57;;;9.30;99.90;;;;;;2092859;28;20048;-70
2022/09/22 00:23:52;;;;;;;6.88;4.30;;;9.30;99.90;;;;;;2091519;28;20528;-72
2022/09/22 00:24:53;;;;;;;5.72;4.03;;;9.20;99.90;;;;;;2090577;28;20389;-71
2022/09/22 00:25:53;;;;;;;5.10;4.30;;;9.20;99.90;;;;;;2092502;28;20033;-70
2022/09/22 00:26:56;;;;;;;5.40;4.32;;;9.20;99.90;;;;;;2092016;28;20035;-70
2022/09/22 00:27:56;;;;;;;5.07;3.95;;;9.20;99.90;;;;;;2092703;28;20036;-71
2022/09/22 00:28:57;;;;;;;6.22;4.18;;;9.20;99.90;;;;;;2093371;28;20039;-71
2022/09/22 00:29:57;;;;;;;4.88;4.00;;;9.20;99.90;;;;;;2093401;28;20082;-71
2022/09/22 00:30:58;;;;;;;7.40;4.40;;;9.20;99.90;;;;;;2092778;28;20044;-71
2022/09/22 00:32:00;;;;;;;7.85;4.10;;;9.20;99.90;;;;;;2093112;28;20025;-70
2022/09/22 00:33:00;;;;;;;4.95;4.25;;;9.20;99.90;;;;;;2090499;28;20677;-70
2022/09/22 00:34:01;;;;;;;5.72;3.55;;;9.20;99.90;;;;;;2093433;28;20036;-70
2022/09/22 00:35:02;;;;;;;4.28;3.63;;;9.20;99.90;;;;;;2093926;28;20158;-70
2022/09/22 00:36:03;;;;;;;5.80;4.13;;;9.20;99.90;;;;;;2093319;28;20023;-70
2022/09/22 00:37:04;;;;;;;7.60;3.85;;;9.20;99.90;;;;;;2094251;28;20537;-70
2022/09/22 00:38:05;;;;;;;6.40;4.13;;;9.10;99.90;;;;;;2092445;28;20462;-70
2022/09/22 00:39:06;;;;;;;5.13;3.80;;;9.10;99.90;;;;;;2092675;28;20029;-71
2022/09/22 00:40:08;;;;;;;4.43;3.60;;;9.10;99.90;;;;;;2092761;28;20032;-71
2022/09/22 00:41:19;;;;;;;5.30;3.75;;;9.10;99.90;;;;;;2091003;28;20039;-70
2022/09/22 00:42:21;;;;;;;4.85;4.10;;;9.10;99.90;;;;;;2093445;28;20036;-70
2022/09/22 00:43:25;;;;;;;4.43;3.70;;;9.10;99.90;;;;;;2091971;28;20088;-70
2022/09/22 00:44:30;;;;;;;6.55;3.55;;;9.10;99.90;;;;;;2093132;28;20028;-70
2022/09/22 00:45:30;;;;;;;3.90;3.50;;;9.10;99.90;;;;;;2093141;28;20032;-70
2022/09/22 00:46:31;;;;;;;6.53;3.70;;;9.10;99.90;;;;;;2092471;28;20052;-71
2022/09/22 00:47:46;;;;;;;7.38;3.92;;;9.10;99.90;;;;;;2092647;28;20029;-70
2022/09/22 00:48:55;;;;;;;4.60;3.92;;;9.10;99.90;;;;;;2093965;28;20039;-70
2022/09/22 00:50:19;;;;;;;4.15;3.50;;;9.10;99.90;;;;;;2092380;28;20024;-70
2022/09/22 00:51:27;;;;;;;4.60;3.60;;;9.00;99.90;;;;;;2091898;28;20017;-70
2022/09/22 00:52:46;;;;;;;4.13;3.58;;;9.00;99.90;;;;;;2091210;28;20017;-70
2022/09/22 00:53:47;;;;;;;5.25;3.95;;;9.00;99.90;;;;;;2092678;28;20499;-70
2022/09/22 00:54:50;;;;;;;3.85;3.53;;;9.00;99.90;;;;;;2093178;28;20052;-70
2022/09/22 00:56:01;;;;;;;5.70;3.90;;;9.00;99.90;;;;;;2090768;28;20075;-72
2022/09/22 00:57:09;;;;;;;8.50;3.53;;;9.00;99.90;;;;;;2091066;28;20032;-70
2022/09/22 00:58:17;;;;;;;5.80;4.03;;;9.00;99.90;;;;;;2092455;28;20021;-70
2022/09/22 00:59:22;;;;;;;5.68;3.47;;;9.00;99.90;;;;;;2092218;28;20063;-70
2022/09/22 01:00:23;;;;;;;5.25;3.53;;;9.00;99.90;;;;;;2093550;28;20029;-70
2022/09/22 01:01:23;;;;;;;4.82;3.22;;;9.00;99.90;;;;;;2093603;28;20044;-71
2022/09/22 01:02:24;;;;;;;4.47;3.45;;;8.90;99.90;;;;;;2091335;28;20098;-71
2022/09/22 01:03:28;;;;;;;6.43;3.83;;;9.00;99.90;;;;;;2093002;28;20020;-71
2022/09/22 01:04:29;;;;;;;5.22;3.20;;;8.90;99.90;;;;;;2091623;28;20025;-71
2022/09/22 01:05:32;;;;;;;7.35;3.40;;;9.00;99.90;;;;;;2092562;28;20027;-71
2022/09/22 01:06:34;;;;;;;4.47;3.30;;;8.90;99.90;;;;;;2093975;28;20032;-71
2022/09/22 01:07:36;;;;;;;4.03;3.33;;;8.90;99.90;;;;;;2091151;28;20112;-71
2022/09/22 01:08:38;;;;;;;5.03;3.55;;;8.90;99.90;;;;;;2091832;28;20025;-71
2022/09/22 01:09:39;;;;;;;3.50;3.20;;;9.00;99.90;;;;;;2092761;28;20017;-71
2022/09/22 01:10:40;;;;;;;7.03;3.67;;;8.90;99.90;;;;;;2093491;28;20384;-71
2022/09/22 01:11:42;;;;;;;5.30;3.60;;;8.90;99.90;;;;;;2093732;28;20020;-71
2022/09/22 01:13:16;;;;;;;3.90;3.47;;;8.90;99.90;;;;;;2090726;28;20012;-71
2022/09/22 01:14:19;;;;;;;5.40;3.22;;;8.90;99.90;;;;;;2074902;28;20068;-71
2022/09/22 01:15:31;;;;;;;5.47;3.78;;;8.90;99.90;;;;;;2074462;28;20029;-71
2022/09/22 01:17:07;;;;;;;5.57;3.33;;;8.90;99.90;;;;;;2093020;28;20535;-71
2022/09/22 01:18:41;;;;;;;5.30;3.75;;;8.90;99.90;;;;;;2093333;28;20032;-71
2022/09/22 01:19:48;;;;;;;6.15;3.80;;;8.80;99.90;;;;;;2092858;28;20051;-71
2022/09/22 01:21:19;;;;;;;5.05;3.60;;;8.80;99.90;;;;;;2093174;28;20024;-71
2022/09/22 01:22:52;;;;;;;5.57;3.42;;;8.80;99.90;;;;;;2091139;28;20036;-71
2022/09/22 01:24:21;;;;;;;4.00;3.63;;;8.70;99.90;;;;;;2091835;28;20484;-71
2022/09/22 01:25:25;;;;;;;5.10;3.83;;;8.70;99.90;;;;;;2091359;28;20032;-71
2022/09/22 01:27:15;;;;;;;5.47;3.40;;;8.70;99.90;;;;;;2093519;28;20403;-71
2022/09/22 01:28:31;;;;;;;3.25;2.95;;;8.70;99.90;;;;;;2092524;28;20020;-71
2022/09/22 01:29:48;;;;;;;4.75;3.75;;;8.70;99.90;;;;;;2091897;28;20159;-71
2022/09/22 01:30:59;;;;;;;5.38;3.30;;;8.70;99.90;;;;;;2092398;28;20115;-71
2022/09/22 01:32:09;;;;;;;4.70;3.45;;;8.70;99.90;;;;;;2093639;28;20097;-71
2022/09/22 01:33:25;;;;;;;3.75;3.33;;;8.70;99.90;;;;;;2091441;28;20021;-71
2022/09/22 01:34:30;;;;;;;5.30;3.97;;;8.70;99.90;;;;;;2093401;28;20039;-71
2022/09/22 01:36:02;;;;;;;6.13;3.60;;;8.70;99.90;;;;;;2093052;28;20140;-71
2022/09/22 01:37:27;;;;;;;6.65;3.60;;;8.60;99.90;;;;;;2094220;28;20051;-71
2022/09/22 01:38:41;;;;;;;3.95;3.45;;;8.60;99.90;;;;;;2092625;28;20013;-71
2022/09/22 01:39:50;;;;;;;4.40;3.42;;;8.60;99.90;;;;;;2092442;28;20403;-71
2022/09/22 01:41:05;;;;;;;5.25;3.50;;;8.60;99.90;;;;;;2091616;28;20028;-71
2022/09/22 01:42:24;;;;;;;3.88;3.47;;;8.60;99.90;;;;;;2091515;28;20028;-71
2022/09/22 01:43:44;;;;;;;4.18;3.05;;;8.60;99.90;;;;;;2092097;28;20826;-71
2022/09/22 01:44:57;;;;;;;4.85;3.50;;;8.60;99.90;;;;;;2092113;28;20023;-71
2022/09/22 01:46:02;;;;;;;6.93;3.67;;;8.60;99.90;;;;;;2092850;28;20035;-71
2022/09/22 01:47:08;;;;;;;4.22;3.53;;;8.60;99.90;;;;;;2092484;28;20702;-71
2022/09/22 01:48:31;;;;;;;5.13;3.35;;;8.60;99.90;;;;;;2092449;28;20023;-71
2022/09/22 01:49:36;;;;;;;5.53;3.58;;;8.60;99.90;;;;;;2090489;28;20543;-71
2022/09/22 01:51:03;;;;;;;5.20;3.38;;;8.60;99.90;;;;;;2092254;28;20472;-71
2022/09/22 01:52:16;;;;;;;6.25;3.35;;;8.60;99.90;;;;;;2095217;28;20020;-71
2022/09/22 01:53:20;;;;;;;9.23;3.90;;;8.60;99.90;;;;;;2094055;28;20047;-71
2022/09/22 01:54:39;;;;;;;6.93;3.25;;;8.60;99.90;;;;;;2092288;28;20088;-71
2022/09/22 01:55:46;;;;;;;3.85;2.85;;;8.60;99.90;;;;;;2092772;28;20129;-71
2022/09/22 01:56:52;;;;;;;3.63;3.33;;;8.50;99.90;;;;;;2091350;28;20021;-71
2022/09/22 01:58:04;;;;;;;3.50;3.20;;;8.60;99.90;;;;;;2092805;28;20029;-71
2022/09/22 01:59:06;;;;;;;3.72;3.17;;;8.60;99.90;;;;;;2093307;28;20059;-71
2022/09/22 02:00:08;;;;;;;6.40;3.13;;;8.50;99.90;;;;;;2093784;28;20025;-71
2022/09/22 02:01:13;;;;;;;7.25;3.40;;;8.60;99.90;;;;;;2098020;28;20467;-71
2022/09/22 02:02:29;;;;;;;4.45;3.22;;;8.60;99.90;;;;;;2095487;28;20438;-71
2022/09/22 02:03:49;;;;;;;4.90;3.13;;;8.50;99.90;;;;;;2093413;28;20031;-71
2022/09/22 02:04:55;;;;;;;3.58;3.28;;;8.50;99.90;;;;;;2099607;28;20135;-71
2022/09/22 02:06:03;;;;;;;7.90;3.50;;;8.50;99.90;;;;;;2100818;28;20024;-71
2022/09/22 02:07:10;;;;;;;4.90;3.30;;;8.50;99.90;;;;;;2092787;28;20090;-71
2022/09/22 02:08:18;;;;;;;5.20;3.42;;;8.50;99.90;;;;;;2093442;28;20036;-71
2022/09/22 02:09:21;;;;;;;4.05;3.15;;;8.50;99.90;;;;;;2094042;28;20025;-71
2022/09/22 02:10:30;;;;;;;4.88;3.25;;;8.50;99.90;;;;;;2093636;28;20039;-71
2022/09/22 02:11:30;;;;;;;8.57;3.45;;;8.50;99.90;;;;;;2094540;28;20083;-71
2022/09/22 02:12:31;;;;;;;3.65;3.17;;;8.50;99.90;;;;;;2094919;28;20029;-71
2022/09/22 02:13:32;;;;;;;5.47;3.28;;;8.50;99.90;;;;;;2091667;28;20023;-71
2022/09/22 02:14:33;;;;;;;4.15;3.10;;;8.50;99.90;;;;;;2092402;28;20044;-71
2022/09/22 02:16:53;;;;;;;7.15;3.35;;;8.50;99.90;;;;;;2092128;28;20029;-71
2022/09/22 02:18:00;;;;;;;4.47;3.17;;;8.50;99.90;;;;;;2094564;28;20028;-71
2022/09/22 02:19:26;;;;;;;6.32;3.42;;;8.50;99.90;;;;;;2094270;28;20028;-71
2022/09/22 02:20:27;;;;;;;8.05;3.00;;;8.50;99.90;;;;;;2093354;28;20086;-71
2022/09/22 02:21:28;;;;;;;7.53;3.20;;;8.50;99.90;;;;;;2094501;28;20119;-71
2022/09/22 02:22:31;;;;;;;4.97;2.90;;;8.50;99.90;;;;;;2093071;28;20052;-71
2022/09/22 02:23:32;;;;;;;6.47;3.22;;;8.50;99.90;;;;;;2093422;28;20547;-71
2022/09/22 02:24:41;;;;;;;6.05;3.08;;;8.50;99.90;;;;;;2093291;28;20437;-71
2022/09/22 02:25:44;;;;;;;3.28;2.88;;;8.50;99.90;;;;;;2093777;28;20028;-71
2022/09/22 02:26:45;;;;;;;3.08;2.85;;;8.40;99.90;;;;;;2094459;28;20032;-71
2022/09/22 02:27:46;;;;;;;4.05;3.53;;;8.40;99.90;;;;;;2094544;28;20033;-71
2022/09/22 02:28:47;;;;;;;4.00;3.15;;;8.40;99.90;;;;;;2094616;28;20754;-71
2022/09/22 02:29:57;;;;;;;6.22;3.20;;;8.40;99.90;;;;;;2092561;28;20648;-71
2022/09/22 02:31:00;;;;;;;3.40;3.10;;;8.40;99.90;;;;;;2093827;28;20041;-71
2022/09/22 02:32:06;;;;;;;4.70;2.92;;;8.40;99.90;;;;;;2100520;28;20043;-71
2022/09/22 02:33:07;;;;;;;4.00;3.08;;;8.40;99.90;;;;;;2098373;28;20442;-71
2022/09/22 02:34:08;;;;;;;3.92;3.20;;;8.40;99.90;;;;;;2093199;28;20126;-71
2022/09/22 02:35:09;;;;;;;5.38;3.45;;;8.40;99.90;;;;;;2095627;28;20021;-71
2022/09/22 02:36:28;;;;;;;3.75;2.78;;;8.40;99.90;;;;;;2093431;28;20528;-71
2022/09/22 02:37:36;;;;;;;3.88;3.03;;;8.40;99.90;;;;;;2094963;28;20074;-71
2022/09/22 02:39:03;;;;;;;3.47;3.10;;;8.40;99.90;;;;;;2093884;28;20024;-71
2022/09/22 02:40:37;;;;;;;3.80;2.97;;;8.40;99.90;;;;;;2094181;28;20060;-71
2022/09/22 02:41:58;;;;;;;6.07;3.35;;;8.40;99.90;;;;;;2094244;28;20115;-71
2022/09/22 02:43:04;;;;;;;2.85;2.60;;;8.30;99.90;;;;;;2094077;28;20131;-71
2022/09/22 02:44:14;;;;;;;7.60;3.17;;;8.30;99.90;;;;;;2093983;28;20036;-71
2022/09/22 02:45:17;;;;;;;4.05;3.15;;;8.30;99.90;;;;;;2093471;28;20111;-71
2022/09/22 02:46:28;;;;;;;3.63;3.13;;;8.30;99.90;;;;;;2093374;28;20035;-71
2022/09/22 02:47:39;;;;;;;4.25;3.15;;;8.30;99.90;;;;;;2094056;28;20113;-71
2022/09/22 02:48:49;;;;;;;3.97;3.28;;;8.30;99.90;;;;;;2092131;28;20043;-71
2022/09/22 02:49:51;;;;;;;5.65;3.47;;;8.30;99.90;;;;;;2094249;28;20009;-71
2022/09/22 02:50:53;;;;;;;3.47;3.03;;;8.30;99.90;;;;;;2093166;28;20051;-71
2022/09/22 02:51:54;;;;;;;4.50;3.10;;;8.30;99.90;;;;;;2094600;28;20037;-71
2022/09/22 02:53:03;;;;;;;5.03;2.92;;;8.30;99.90;;;;;;2093282;28;20032;-71
2022/09/22 02:54:05;;;;;;;5.80;3.30;;;8.30;99.90;;;;;;2093332;28;20025;-71
2022/09/22 02:55:07;;;;;;;4.18;2.90;;;8.30;99.90;;;;;;2092933;28;20150;-71
2022/09/22 02:56:08;;;;;;;4.72;3.10;;;8.30;99.90;;;;;;2093701;28;20017;-72
2022/09/22 02:57:09;;;;;;;4.30;3.25;;;8.30;99.90;;;;;;2092245;28;20036;-71
2022/09/22 02:58:11;;;;;;;6.03;3.00;;;8.30;99.90;;;;;;2094930;28;20027;-71
2022/09/22 02:59:12;;;;;;;4.25;2.97;;;8.30;99.90;;;;;;2093893;28;20029;-71
2022/09/22 03:00:13;;;;;;;7.07;2.78;;;8.30;99.90;;;;;;2095289;28;20051;-71
2022/09/22 03:01:14;;;;;;;3.22;2.92;;;8.30;99.90;;;;;;2096106;28;20107;-71
2022/09/22 03:02:15;;;;;;;4.68;3.10;;;8.20;99.90;;;;;;2093962;28;20477;-71
2022/09/22 03:03:15;;;;;;;3.38;3.00;;;8.30;99.90;;;;;;2092327;28;20041;-71
2022/09/22 03:04:16;;;;;;;8.20;3.22;;;8.20;99.90;;;;;;2092077;28;20075;-71
2022/09/22 03:05:16;;;;;;;4.50;2.95;;;8.20;99.90;;;;;;2093405;28;20127;-71
2022/09/22 03:06:17;;;;;;;2.85;2.65;;;8.20;99.90;;;;;;2094906;28;20035;-71
2022/09/22 03:07:18;;;;;;;2.88;2.58;;;8.20;99.90;;;;;;2094873;28;20086;-71
2022/09/22 03:08:19;;;;;;;4.80;2.83;;;8.20;99.90;;;;;;2092685;28;20798;-71
2022/09/22 03:09:19;;;;;;;5.78;3.50;;;8.20;99.90;;;;;;2092422;28;20107;-71
2022/09/22 03:10:20;;;;;;;4.45;2.90;;;8.20;99.90;;;;;;2094475;28;20043;-71
2022/09/22 03:11:21;;;;;;;3.65;2.80;;;8.20;99.90;;;;;;2093021;28;20029;-71
2022/09/22 03:12:21;;;;;;;3.95;3.45;;;8.20;99.90;;;;;;2094534;28;20021;-71
2022/09/22 03:13:22;;;;;;;4.43;2.90;;;8.20;99.90;;;;;;2092521;28;20013;-71
2022/09/22 03:14:22;;;;;;;4.38;2.80;;;8.20;99.90;;;;;;2091869;28;20017;-71
2022/09/22 03:15:23;;;;;;;6.30;3.08;;;8.20;99.90;;;;;;2092813;28;20066;-71
2022/09/22 03:16:24;;;;;;;3.80;2.50;;;8.20;99.90;;;;;;2093730;28;20435;-71
2022/09/22 03:17:24;;;;;;;4.13;2.80;;;8.20;99.90;;;;;;2091949;28;20042;-71
2022/09/22 03:18:25;;;;;;;5.70;3.00;;;8.20;99.90;;;;;;2091454;28;20039;-71
2022/09/22 03:19:26;;;;;;;5.40;3.20;;;8.20;99.90;;;;;;2091563;28;20029;-71
2022/09/22 03:20:26;;;;;;;4.57;3.22;;;8.20;99.90;;;;;;2100469;28;20111;-71
2022/09/22 03:21:27;;;;;;;3.90;2.78;;;8.10;99.90;;;;;;2103025;28;20028;-71
2022/09/22 03:22:27;;;;;;;5.85;2.80;;;8.20;99.90;;;;;;2092879;28;20036;-71
2022/09/22 03:23:28;;;;;;;3.95;2.97;;;8.20;99.90;;;;;;2091631;28;20033;-71
2022/09/22 03:24:29;;;;;;;3.70;2.83;;;8.10;99.90;;;;;;2102099;28;20483;-71
2022/09/22 03:25:29;;;;;;;4.30;2.88;;;8.10;99.90;;;;;;2099937;28;20052;-71
2022/09/22 03:26:30;;;;;;;3.80;2.50;;;8.10;99.90;;;;;;2091749;28;20759;-71
2022/09/22 03:27:30;;;;;;;5.80;2.75;;;8.10;99.90;;;;;;2091543;28;20032;-71
2022/09/22 03:28:31;;;;;;;4.50;2.88;;;8.10;99.90;;;;;;2093657;28;20061;-71
2022/09/22 03:29:31;;;;;;;3.83;2.90;;;8.10;99.90;;;;;;2094022;28;20781;-71
2022/09/22 03:30:32;;;;;;;6.38;2.70;;;8.10;99.90;;;;;;2092220;28;20043;-71
2022/09/22 03:31:33;;;;;;;3.67;2.75;;;8.10;99.90;;;;;;2093254;28;20079;-71
2022/09/22 03:32:34;;;;;;;4.43;2.75;;;8.10;99.90;;;;;;2092575;28;20043;-71
2022/09/22 03:33:34;;;;;;;6.78;3.25;;;8.10;99.90;;;;;;2092636;28;20021;-71
2022/09/22 03:34:35;;;;;;;4.32;2.85;;;8.10;99.90;;;;;;2094171;28;20021;-71
2022/09/22 03:35:35;;;;;;;3.30;2.30;;;8.10;99.90;;;;;;2092704;28;20023;-71
2022/09/22 03:36:36;;;;;;;5.82;2.83;;;8.10;99.90;;;;;;2093962;28;20162;-71
2022/09/22 03:37:36;;;;;;;3.40;2.70;;;8.10;99.90;;;;;;2091733;28;20029;-71
2022/09/22 03:38:37;;;;;;;4.72;2.72;;;8.10;99.90;;;;;;2094241;28;20655;-71
2022/09/22 03:39:37;;;;;;;5.13;2.90;;;8.10;99.90;;;;;;2093284;28;20476;-71
2022/09/22 03:40:38;;;;;;;6.60;2.92;;;8.10;99.90;;;;;;2092791;28;20017;-71
2022/09/22 03:41:39;;;;;;;3.38;2.85;;;8.10;99.90;;;;;;2095795;28;20042;-71
2022/09/22 03:42:40;;;;;;;5.47;3.10;;;8.10;99.90;;;;;;2093047;28;20017;-71
2022/09/22 03:43:40;;;;;;;4.93;2.80;;;8.00;99.90;;;;;;2091741;28;20028;-71
2022/09/22 03:44:41;;;;;;;4.68;2.78;;;8.10;99.90;;;;;;2093972;28;20053;-71
2022/09/22 03:45:42;;;;;;;3.47;3.17;;;8.00;99.90;;;;;;2092430;28;20039;-71
2022/09/22 03:46:42;;;;;;;3.40;2.83;;;8.00;99.90;;;;;;2092803;28;20396;-71
2022/09/22 03:47:43;;;;;;;3.10;2.58;;;8.00;99.90;;;;;;2092793;28;20074;-71
2022/09/22 03:48:44;;;;;;;3.42;2.95;;;8.00;99.90;;;;;;2093503;28;20028;-71
2022/09/22 03:49:44;;;;;;;3.90;3.35;;;8.00;99.90;;;;;;2093462;28;20391;-71
2022/09/22 03:50:45;;;;;;;5.13;2.97;;;8.00;99.90;;;;;;2093831;28;20438;-71
2022/09/22 03:51:45;;;;;;;5.00;3.65;;;8.00;99.90;;;;;;2093386;28;20108;-71
2022/09/22 03:52:46;;;;;;;4.57;2.88;;;8.00;99.90;;;;;;2092926;28;20016;-71
2022/09/22 03:53:46;;;;;;;5.30;3.40;;;8.00;99.90;;;;;;2091836;28;20017;-71
2022/09/22 03:54:47;;;;;;;5.53;3.40;;;8.00;99.90;;;;;;2092946;28;20037;-71
2022/09/22 03:55:48;;;;;;;4.43;3.42;;;8.00;99.90;;;;;;2093433;28;20016;-71
2022/09/22 03:56:49;;;;;;;4.80;3.28;;;8.00;99.90;;;;;;2093495;28;20016;-71
2022/09/22 03:57:50;;;;;;;4.47;3.30;;;8.00;99.90;;;;;;2094049;28;20130;-71
2022/09/22 03:58:50;;;;;;;3.45;3.13;;;8.00;99.90;;;;;;2093504;28;20078;-71
2022/09/22 03:59:51;;;;;;;5.15;3.85;;;8.00;99.90;;;;;;2093145;28;20161;-71
2022/09/22 04:00:51;;;;;;;5.75;3.60;;;8.00;99.90;;;;;;2093403;28;20033;-71
2022/09/22 04:01:52;;;;;;;4.95;3.10;;;8.00;99.90;;;;;;2095014;28;20036;-71
2022/09/22 04:02:52;;;;;;;3.90;3.55;;;7.90;99.90;;;;;;2092769;28;20033;-71
2022/09/22 04:03:53;;;;;;;6.97;3.40;;;7.90;99.90;;;;;;2091993;28;20095;-71
2022/09/22 04:04:54;;;;;;;3.40;3.03;;;7.90;99.90;;;;;;2093726;28;20041;-71
2022/09/22 04:05:55;;;;;;;4.18;3.35;;;7.90;99.90;;;;;;2093997;28;20043;-71
2022/09/22 04:06:55;;;;;;;4.72;3.58;;;8.00;99.90;;;;;;2093016;28;20555;-71
2022/09/22 04:07:56;;;;;;;3.58;3.22;;;7.90;99.90;;;;;;2094720;28;20025;-71
2022/09/22 04:08:56;;;;;;;5.63;4.03;;;7.90;99.90;;;;;;2095187;28;20974;-71
2022/09/22 04:09:57;;;;;;;3.47;3.08;;;7.90;99.90;;;;;;2095152;28;20112;-71
2022/09/22 04:10:59;;;;;;;3.92;3.50;;;7.90;99.90;;;;;;2094809;28;20079;-71
2022/09/22 04:12:00;;;;;;;5.70;3.42;;;7.90;99.90;;;;;;2093219;28;20084;-71
2022/09/22 04:13:01;;;;;;;6.30;4.40;;;7.90;99.90;;;;;;2092314;28;20029;-71
2022/09/22 04:14:03;;;;;;;3.88;3.13;;;7.90;99.90;;;;;;2092526;28;20020;-71
2022/09/22 04:15:05;;;;;;;5.68;3.60;;;7.90;99.90;;;;;;2091999;28;20115;-71
2022/09/22 04:16:05;;;;;;;5.05;3.58;;;7.90;99.90;;;;;;2091893;28;20013;-71
2022/09/22 04:17:06;;;;;;;3.38;2.95;;;7.90;99.90;;;;;;2091610;28;21000;-71
2022/09/22 04:18:07;;;;;;;3.65;3.30;;;7.90;99.90;;;;;;2091800;28;20551;-71
2022/09/22 04:19:08;;;;;;;6.97;3.33;;;7.90;99.90;;;;;;2092867;28;20507;-71
2022/09/22 04:20:10;;;;;;;4.60;3.40;;;7.90;99.90;;;;;;2094235;28;20610;-71
2022/09/22 04:21:11;;;;;;;6.10;3.38;;;7.90;99.90;;;;;;2091533;28;20399;-71
2022/09/22 04:22:12;;;;;;;4.55;3.53;;;7.90;99.90;;;;;;2093977;28;20135;-71
2022/09/22 04:23:14;;;;;;;3.50;3.15;;;7.90;99.90;;;;;;2091470;28;20392;-71
2022/09/22 04:24:16;;;;;;;3.70;3.40;;;7.90;99.90;;;;;;2092214;28;20086;-71
2022/09/22 04:25:16;;;;;;;5.40;3.80;;;7.80;99.90;;;;;;2091164;28;20024;-71
2022/09/22 04:26:17;;;;;;;3.75;3.20;;;7.90;99.90;;;;;;2092451;28;20647;-71
2022/09/22 04:27:17;;;;;;;4.55;3.75;;;7.90;99.90;;;;;;2092640;28;20032;-71
2022/09/22 04:28:18;;;;;;;3.45;3.15;;;7.90;99.90;;;;;;2096708;28;20509;-71
2022/09/22 04:29:18;;;;;;;3.92;3.17;;;7.90;99.90;;;;;;2095029;28;20081;-72
2022/09/22 04:30:19;;;;;;;5.20;3.60;;;7.90;99.90;;;;;;2092078;28;20036;-71
2022/09/22 04:31:20;;;;;;;4.55;3.45;;;7.90;99.90;;;;;;2092878;28;20362;-71
2022/09/22 04:32:20;;;;;;;4.15;3.75;;;7.90;99.90;;;;;;2093296;28;20032;-72
2022/09/22 04:33:22;;;;;;;4.88;3.55;;;7.90;99.90;;;;;;2092317;28;20096;-71
2022/09/22 04:34:22;;;;;;;5.78;3.80;;;7.90;99.90;;;;;;2093629;28;20031;-71
2022/09/22 04:35:24;;;;;;;5.93;3.90;;;7.80;99.90;;;;;;2094023;28;20020;-71
2022/09/22 04:36:25;;;;;;;6.35;3.92;;;7.80;99.90;;;;;;2093966;28;20017;-71
2022/09/22 04:37:25;;;;;;;3.78;3.47;;;7.80;99.90;;;;;;2091188;28;20021;-71
2022/09/22 04:38:26;;;;;;;5.18;3.95;;;7.80;99.90;;;;;;2093630;28;20135;-71
2022/09/22 04:39:29;;;;;;;5.05;3.80;;;7.80;99.90;;;;;;2092637;28;20401;-71
2022/09/22 04:40:30;;;;;;;5.15;3.97;;;7.80;99.90;;;;;;2093117;28;20411;-71
2022/09/22 04:41:30;;;;;;;4.32;3.80;;;7.80;99.90;;;;;;2093485;28;20047;-71
2022/09/22 04:42:31;;;;;;;5.30;3.83;;;7.80;99.90;;;;;;2092786;28;20120;-71
2022/09/22 04:43:31;;;;;;;5.68;3.70;;;7.80;99.90;;;;;;2091668;28;20497;-71
2022/09/22 04:44:32;;;;;;;6.60;4.30;;;7.80;99.90;;;;;;2092886;28;20024;-71
2022/09/22 04:45:32;;;;;;;5.35;3.70;;;7.80;99.90;;;;;;2090999;28;20499;-71
2022/09/22 04:46:33;;;;;;;4.60;3.75;;;7.80;99.90;;;;;;2090721;28;20106;-71
2022/09/22 04:47:34;;;;;;;6.13;4.28;;;7.80;99.90;;;;;;2093835;28;20043;-71
2022/09/22 04:48:34;;;;;;;5.55;4.05;;;7.80;99.90;;;;;;2092947;28;20388;-71
2022/09/22 04:49:35;;;;;;;5.32;4.05;;;7.80;99.90;;;;;;2092879;28;20028;-71
2022/09/22 04:50:35;;;;;;;4.40;3.72;;;7.80;99.90;;;;;;2092409;28;20020;-71
2022/09/22 04:51:36;;;;;;;4.75;3.40;;;7.80;99.90;;;;;;2093638;28;20130;-71
2022/09/22 04:52:36;;;;;;;5.03;4.07;;;7.80;99.90;;;;;;2093036;28;20163;-71
2022/09/22 04:53:37;;;;;;;5.85;3.88;;;7.70;99.90;;;;;;2091870;28;20024;-71
2022/09/22 04:54:37;;;;;;;4.63;3.97;;;7.80;99.90;;;;;;2092058;28;20029;-71
2022/09/22 04:55:38;;;;;;;5.57;3.90;;;7.70;99.90;;;;;;2092894;28;20021;-71
2022/09/22 04:56:39;;;;;;;4.47;3.70;;;7.70;99.90;;;;;;2091834;28;20499;-71
2022/09/22 04:57:41;;;;;;;6.03;4.20;;;7.70;99.90;;;;;;2093311;28;20027;-71
2022/09/22 04:58:41;;;;;;;4.55;4.07;;;7.70;99.90;;;;;;2092326;28;20150;-71
2022/09/22 04:59:42;;;;;;;5.10;3.80;;;7.70;99.90;;;;;;2092486;28;20033;-71
2022/09/22 05:00:42;;;;;;;4.20;3.80;;;7.70;99.90;;;;;;2093469;28;20029;-71
2022/09/22 05:01:43;;;;;;;4.93;3.72;;;7.70;99.90;;;;;;2092804;28;20126;-71
2022/09/22 05:02:44;;;;;;;5.38;4.10;;;7.70;99.90;;;;;;2091081;28;20480;-71
2022/09/22 05:03:45;;;;;;;5.05;3.92;;;7.70;99.90;;;;;;2092949;28;20373;-71
2022/09/22 05:04:45;;;;;;;6.28;4.03;;;7.70;99.90;;;;;;2092411;28;20039;-71
2022/09/22 05:05:46;;;;;;;6.88;4.72;;;7.70;99.90;;;;;;2093752;28;20024;-71
2022/09/22 05:06:47;;;;;;;4.18;3.78;;;7.70;99.90;;;;;;2091915;28;20400;-71
2022/09/22 05:07:52;;;;;;;5.18;4.28;;;7.70;99.90;;;;;;2092812;28;20025;-71
2022/09/22 05:08:55;;;;;;;4.55;3.75;;;7.70;99.90;;;;;;2094097;28;20036;-72
2022/09/22 05:09:56;;;;;;;4.25;3.35;;;7.70;99.90;;;;;;2091202;28;20150;-71
2022/09/22 05:10:56;;;;;;;4.90;3.70;;;7.70;99.90;;;;;;2093488;28;20024;-71
2022/09/22 05:11:58;;;;;;;6.60;4.55;;;7.70;99.90;;;;;;2092628;28;20112;-71
2022/09/22 05:12:58;;;;;;;6.85;4.60;;;7.70;99.90;;;;;;2092125;28;20024;-71
2022/09/22 05:13:59;;;;;;;7.72;4.45;;;7.70;99.90;;;;;;2092960;28;20028;-71
2022/09/22 05:15:00;;;;;;;7.72;4.00;;;7.70;99.90;;;;;;2091576;28;20029;-71
2022/09/22 05:16:00;;;;;;;5.65;4.20;;;7.70;99.90;;;;;;2092595;28;20362;-71
2022/09/22 05:17:01;;;;;;;4.35;3.60;;;7.70;99.90;;;;;;2091552;28;20040;-71
2022/09/22 05:18:02;;;;;;;5.30;4.20;;;7.60;99.90;;;;;;2093101;28;20740;-71
2022/09/22 05:19:02;;;;;;;4.78;3.72;;;7.70;99.90;;;;;;2092893;28;20020;-71
2022/09/22 05:20:04;;;;;;;4.85;3.85;;;7.70;99.90;;;;;;2093270;28;20024;-71
2022/09/22 05:21:06;;;;;;;6.32;4.05;;;7.60;99.90;;;;;;2093487;28;20059;-71
2022/09/22 05:22:06;;;;;;;6.00;4.00;;;7.70;99.90;;;;;;2093910;28;20060;-71
2022/09/22 05:23:07;;;;;;;4.38;3.85;;;7.70;99.90;;;;;;2093066;28;20024;-71
2022/09/22 05:24:07;;;;;;;5.63;4.05;;;7.60;99.90;;;;;;2091865;28;20036;-71
2022/09/22 05:25:10;;;;;;;4.35;3.72;;;7.60;99.90;;;;;;2093994;28;20735;-71
2022/09/22 05:26:11;;;;;;;4.43;3.30;;;7.60;99.90;;;;;;2093415;28;20028;-71
2022/09/22 05:27:12;;;;;;;4.40;4.00;;;7.60;99.90;;;;;;2093736;28;20111;-71
2022/09/22 05:28:12;;;;;;;6.10;4.25;;;7.60;99.90;;;;;;2091535;28;20101;-71
2022/09/22 05:29:13;;;;;;;10.48;4.20;;;7.60;99.90;;;;;;2091857;28;20029;-71
2022/09/22 05:30:15;;;;;;;7.68;4.35;;;7.60;99.90;;;;;;2091008;28;20029;-71
2022/09/22 05:31:16;;;;;;;7.65;4.82;;;7.70;99.90;;;;;;2094208;28;20687;-71
2022/09/22 05:32:16;;;;;;;6.57;4.18;;;7.70;99.90;;;;;;2091956;28;20442;-71
2022/09/22 05:33:17;;;;;;;9.15;3.75;;;7.70;99.90;;;;;;2091603;28;20686;-72
2022/09/22 05:34:18;;;;;;;5.22;3.95;;;7.70;99.90;;;;;;2092602;28;20024;-71
2022/09/22 05:35:21;;;;;;;5.72;3.65;;;7.60;99.90;;;;;;2091737;28;20392;-71
2022/09/22 05:36:21;;;;;;;7.40;4.43;;;7.70;99.90;;;;;;2091268;28;20070;-71
2022/09/22 05:37:22;;;;;;;8.05;4.88;;;7.70;99.90;;;;;;2093042;28;20078;-71
2022/09/22 05:38:22;;;;;;;7.10;4.47;;;7.70;99.90;;;;;;2092977;28;20025;-71
2022/09/22 05:39:23;;;;;;;7.03;4.38;;;7.70;99.90;;;;;;2089190;28;20809;-71
2022/09/22 05:40:25;;;;;;;6.07;3.95;;;7.70;99.90;;;;;;2090305;28;20025;-71